Time;durP1;ratioP1;P1;durP2;ratioP2;P2;SDS_P1;SDS_P2;PMS_P1;PMS_P2;Temp;Humidity;BMP_temperature;BMP_pressure;BME280_temperature;BME280_humidity;BME280_pressure;Samples;Min_cycle;Max_cycle;Signal;HPM_P1;HPM_P2
2022/04/26 03:36:17;;;;;;;19.15;13.60;;;6.40;99.90;;;;;;5027206;28;20050;-78
2022/04/26 03:38:45;;;;;;;17.63;14.07;;;6.50;99.90;;;;;;5031748;28;20395;-78
2022/04/26 03:41:10;;;;;;;21.38;13.65;;;6.40;99.90;;;;;;5023474;28;20110;-78
2022/04/26 03:43:37;;;;;;;19.00;13.55;;;6.40;99.90;;;;;;5028446;28;20041;-78
2022/04/26 03:46:03;;;;;;;20.17;14.70;;;6.40;99.90;;;;;;5015535;28;20054;-78
2022/04/26 03:48:29;;;;;;;21.50;13.68;;;6.40;99.90;;;;;;5027374;28;20406;-78
2022/04/26 03:50:54;;;;;;;19.45;13.73;;;6.30;99.90;;;;;;5031021;28;20045;-78
2022/04/26 03:53:20;;;;;;;21.27;13.63;;;6.40;99.90;;;;;;5031892;28;20044;-78
2022/04/26 03:55:46;;;;;;;22.25;14.20;;;6.40;99.90;;;;;;5028369;28;20636;-79
2022/04/26 03:58:12;;;;;;;18.83;13.20;;;6.40;99.90;;;;;;5031145;28;20041;-79
2022/04/26 04:00:38;;;;;;;21.60;13.35;;;6.40;99.90;;;;;;5027410;28;20052;-79
2022/04/26 04:03:04;;;;;;;23.48;12.35;;;6.40;99.90;;;;;;5022830;28;20078;-79
2022/04/26 04:05:30;;;;;;;19.88;14.05;;;6.40;99.90;;;;;;5029204;28;20033;-79
2022/04/26 04:07:55;;;;;;;20.98;13.65;;;6.50;99.90;;;;;;5027484;28;20474;-78
2022/04/26 04:10:21;;;;;;;16.42;13.13;;;6.50;99.90;;;;;;5014303;28;20064;-78
2022/04/26 04:12:46;;;;;;;15.85;12.45;;;6.50;99.90;;;;;;5028176;28;20095;-78
2022/04/26 04:15:12;;;;;;;20.25;13.55;;;6.60;99.90;;;;;;5034136;28;20126;-79
2022/04/26 04:17:38;;;;;;;17.83;12.10;;;6.60;99.90;;;;;;5029407;28;20425;-78
2022/04/26 04:20:04;;;;;;;16.60;11.85;;;6.60;99.90;;;;;;5026185;28;20049;-79
2022/04/26 04:22:29;;;;;;;18.08;12.45;;;6.70;99.90;;;;;;5011242;28;20132;-79
2022/04/26 04:24:55;;;;;;;20.52;11.77;;;6.70;99.90;;;;;;5011551;28;20136;-78
2022/04/26 04:27:20;;;;;;;17.08;11.95;;;6.80;99.90;;;;;;5028793;28;20056;-79
2022/04/26 04:29:46;;;;;;;15.50;11.73;;;6.80;99.90;;;;;;5025230;28;20116;-79
2022/04/26 04:32:11;;;;;;;15.52;11.30;;;6.90;99.90;;;;;;5026103;28;20045;-78
2022/04/26 04:34:37;;;;;;;18.88;10.85;;;6.90;99.90;;;;;;5010112;28;20044;-78
2022/04/26 04:37:03;;;;;;;17.02;11.35;;;7.00;99.90;;;;;;5029005;28;20486;-78
2022/04/26 04:39:28;;;;;;;17.92;11.05;;;7.00;99.90;;;;;;5028832;28;20041;-79
2022/04/26 04:41:54;;;;;;;18.92;11.43;;;7.00;99.90;;;;;;5026694;28;20042;-79
2022/04/26 04:44:21;;;;;;;16.83;10.00;;;7.00;99.90;;;;;;5034626;28;20047;-78
2022/04/26 04:46:47;;;;;;;17.98;10.63;;;7.00;99.90;;;;;;5014301;28;20048;-79
2022/04/26 04:49:13;;;;;;;14.55;9.60;;;7.10;99.90;;;;;;5014568;28;20040;-78
2022/04/26 04:51:38;;;;;;;15.45;10.15;;;7.10;99.90;;;;;;5045319;28;20393;-79
2022/04/26 04:54:04;;;;;;;14.88;9.88;;;7.20;99.90;;;;;;5036157;28;20041;-78
2022/04/26 04:56:31;;;;;;;14.85;8.98;;;7.10;99.90;;;;;;5033235;28;20041;-78
2022/04/26 04:58:57;;;;;;;17.90;9.05;;;7.00;99.90;;;;;;5036412;28;20452;-78
2022/04/26 05:01:23;;;;;;;15.93;8.65;;;7.00;99.90;;;;;;5033658;28;20034;-79
2022/04/26 05:03:49;;;;;;;13.73;8.55;;;7.10;99.90;;;;;;5033245;28;20368;-79
2022/04/26 05:06:15;;;;;;;12.25;8.30;;;7.10;99.90;;;;;;5028541;28;20044;-79
2022/04/26 05:08:42;;;;;;;16.92;8.95;;;7.10;99.90;;;;;;5032862;28;20049;-78
2022/04/26 05:11:08;;;;;;;13.77;7.75;;;7.20;99.90;;;;;;5029897;28;20116;-78
2022/04/26 05:13:33;;;;;;;16.02;7.97;;;7.30;99.90;;;;;;5032966;28;20125;-78
2022/04/26 05:16:00;;;;;;;13.18;7.43;;;7.40;99.90;;;;;;5032008;28;20088;-78
2022/04/26 05:18:27;;;;;;;10.40;6.60;;;7.50;99.90;;;;;;5029287;28;20037;-79
2022/04/26 05:20:52;;;;;;;13.80;8.07;;;7.70;99.90;;;;;;5014598;28;20398;-79
2022/04/26 05:26:02;;;;;;;9.88;7.35;;;7.90;99.90;;;;;;5040082;28;20081;-79
2022/04/26 05:28:28;;;;;;;13.23;6.03;;;8.00;99.90;;;;;;5039729;28;20072;-78
2022/04/26 05:30:54;;;;;;;12.07;6.57;;;8.10;99.90;;;;;;5030779;28;20045;-79
2022/04/26 05:33:21;;;;;;;11.75;6.80;;;8.30;99.90;;;;;;5038321;28;20383;-79
2022/04/26 05:35:48;;;;;;;11.77;5.78;;;8.50;99.90;;;;;;5030125;28;20514;-79
2022/04/26 05:38:14;;;;;;;9.50;5.95;;;8.70;99.90;;;;;;5017772;28;20065;-79
2022/04/26 05:40:40;;;;;;;13.85;6.97;;;9.00;99.90;;;;;;5031791;28;20049;-78
2022/04/26 05:43:06;;;;;;;14.93;6.68;;;9.30;99.90;;;;;;5016427;28;20030;-79
2022/04/26 05:45:32;;;;;;;9.70;5.63;;;9.70;99.90;;;;;;5010326;28;20037;-79
2022/04/26 05:47:57;;;;;;;11.98;5.53;;;10.60;99.90;;;;;;5032540;28;20419;-79
2022/04/26 05:50:23;;;;;;;7.15;4.50;;;11.60;99.90;;;;;;5031390;28;20045;-79
2022/04/26 05:52:49;;;;;;;10.60;4.55;;;12.20;99.90;;;;;;5043508;28;20052;-79
2022/04/26 05:55:14;;;;;;;10.13;4.85;;;12.20;99.90;;;;;;5034129;28;20446;-78
2022/04/26 05:57:42;;;;;;;9.75;5.22;;;11.90;99.90;;;;;;5036800;28;20382;-78
2022/04/26 06:00:13;;;;;;;9.82;4.32;;;11.70;99.90;;;;;;5024924;28;20045;-79
2022/04/26 06:02:39;;;;;;;10.07;4.90;;;11.70;99.90;;;;;;5024732;28;20485;-82
2022/04/26 06:05:05;;;;;;;9.57;3.90;;;12.40;99.90;;;;;;5032685;28;20072;-78
2022/04/26 06:07:31;;;;;;;7.80;3.78;;;13.20;99.90;;;;;;5047177;28;20398;-78
2022/04/26 06:09:57;;;;;;;9.85;3.85;;;13.90;99.90;;;;;;5045521;28;20045;-78
2022/04/26 06:12:29;;;;;;;6.43;4.03;;;13.90;99.90;;;;;;5029625;28;20403;-79
2022/04/26 06:14:56;;;;;;;9.07;3.80;;;14.60;99.90;;;;;;5030440;28;20087;-79
2022/04/26 06:17:21;;;;;;;8.10;3.42;;;15.10;99.80;;;;;;5029456;28;20141;-79
2022/04/26 06:19:48;;;;;;;6.32;3.50;;;14.50;99.90;;;;;;5029418;28;20120;-79
2022/04/26 06:22:13;;;;;;;7.80;3.20;;;15.00;99.40;;;;;;5014153;28;20056;-79
2022/04/26 06:24:39;;;;;;;12.43;3.25;;;15.10;96.90;;;;;;5028376;28;20033;-79
2022/04/26 06:27:04;;;;;;;9.25;3.10;;;16.10;96.90;;;;;;5001559;28;20450;-78
2022/04/26 06:29:30;;;;;;;7.70;3.13;;;16.40;95.80;;;;;;5031125;28;20132;-78
2022/04/26 06:31:56;;;;;;;9.88;2.95;;;16.00;95.40;;;;;;5030038;28;20052;-78
2022/04/26 06:34:21;;;;;;;7.65;3.40;;;16.10;96.10;;;;;;5031649;28;20076;-79
2022/04/26 06:36:47;;;;;;;6.63;3.78;;;15.60;94.60;;;;;;5030243;28;20041;-79
2022/04/26 06:39:13;;;;;;;7.68;3.78;;;14.20;97.40;;;;;;5019712;28;20037;-78
2022/04/26 06:41:38;;;;;;;9.98;4.00;;;13.20;99.90;;;;;;5034931;28;20040;-79
2022/04/26 06:44:04;;;;;;;11.32;3.45;;;12.80;99.90;;;;;;5036487;28;20392;-80
2022/04/26 06:46:30;;;;;;;9.73;3.75;;;12.70;99.90;;;;;;5030646;28;20037;-80
2022/04/26 06:48:58;;;;;;;8.30;3.65;;;12.50;99.90;;;;;;5013611;28;20037;-79
2022/04/26 06:51:24;;;;;;;7.32;3.60;;;12.10;99.90;;;;;;5028693;28;20037;-80
2022/04/26 06:53:51;;;;;;;9.65;3.50;;;11.70;99.90;;;;;;5014325;28;20140;-79
2022/04/26 06:56:16;;;;;;;15.40;4.72;;;11.80;99.90;;;;;;5013683;28;20045;-81
2022/04/26 06:58:42;;;;;;;8.35;3.33;;;11.60;99.90;;;;;;5032021;28;20387;-79
2022/04/26 07:01:08;;;;;;;7.10;3.58;;;11.70;99.90;;;;;;5032345;28;20124;-78
2022/04/26 07:03:33;;;;;;;8.25;3.45;;;11.80;99.90;;;;;;5021161;28;20099;-79
2022/04/26 07:05:59;;;;;;;8.32;3.88;;;11.10;99.90;;;;;;5025420;28;20084;-78
2022/04/26 07:08:24;;;;;;;9.68;3.45;;;11.40;99.90;;;;;;5039327;28;20037;-79
2022/04/26 07:10:50;;;;;;;5.78;3.10;;;11.90;99.90;;;;;;5035634;28;20129;-79
2022/04/26 07:13:18;;;;;;;8.43;3.30;;;13.00;99.90;;;;;;5032798;28;20036;-79
2022/04/26 07:15:44;;;;;;;7.75;3.28;;;13.70;99.90;;;;;;5031514;28;20099;-79
2022/04/26 07:18:12;;;;;;;5.50;2.42;;;15.00;99.10;;;;;;5029404;28;20062;-79
2022/04/26 07:20:38;;;;;;;6.32;3.00;;;13.80;97.60;;;;;;5017486;28;20170;-79
2022/04/26 07:23:04;;;;;;;7.43;3.00;;;13.00;99.90;;;;;;5024548;28;20514;-79
2022/04/26 07:25:29;;;;;;;14.38;3.55;;;12.90;99.90;;;;;;5031225;28;20049;-78
2022/04/26 07:27:55;;;;;;;6.18;3.30;;;13.00;99.90;;;;;;5027456;28;20041;-79
2022/04/26 07:30:21;;;;;;;6.70;2.85;;;13.00;99.90;;;;;;5024259;28;20037;-79
2022/04/26 07:35:30;;;;;;;6.07;2.40;;;13.70;98.10;;;;;;5024887;28;20057;-79
2022/04/26 07:38:07;;;;;;;7.18;2.83;;;13.60;98.10;;;;;;5026158;28;20037;-79
2022/04/26 07:40:33;;;;;;;7.13;2.85;;;14.30;97.30;;;;;;5021757;28;20471;-79
2022/04/26 07:43:00;;;;;;;5.18;2.67;;;14.60;97.40;;;;;;5030097;28;20034;-79
2022/04/26 07:45:25;;;;;;;6.18;2.45;;;16.10;94.10;;;;;;5034565;28;20037;-79
2022/04/26 07:47:51;;;;;;;5.40;2.30;;;16.00;94.20;;;;;;5014765;28;20048;-80
2022/04/26 07:50:17;;;;;;;6.45;2.55;;;16.70;90.90;;;;;;5030094;28;20045;-79
2022/04/26 07:52:42;;;;;;;3.50;2.20;;;16.20;90.20;;;;;;5022212;28;20060;-79
2022/04/26 07:55:10;;;;;;;5.03;2.30;;;15.30;91.30;;;;;;5022503;28;20045;-80
2022/04/26 07:57:37;;;;;;;9.43;2.50;;;14.70;91.20;;;;;;5027153;28;20372;-79
2022/04/26 08:00:03;;;;;;;6.18;2.28;;;14.10;93.80;;;;;;5023006;28;20049;-79
2022/04/26 08:02:28;;;;;;;6.03;2.17;;;13.80;93.70;;;;;;5011692;28;20045;-79
2022/04/26 08:05:00;;;;;;;5.90;2.60;;;12.20;96.70;;;;;;5015030;28;20029;-79
2022/04/26 08:07:25;;;;;;;5.82;2.80;;;12.50;98.60;;;;;;5024613;28;20057;-79
2022/04/26 08:09:51;;;;;;;5.97;2.60;;;12.00;99.90;;;;;;5024356;28;20041;-79
2022/04/26 08:12:17;;;;;;;6.03;2.67;;;11.80;99.90;;;;;;5022674;28;20144;-79
2022/04/26 08:14:42;;;;;;;4.30;2.25;;;12.10;99.90;;;;;;5022247;28;20375;-79
2022/04/26 08:17:08;;;;;;;6.38;2.65;;;11.70;99.90;;;;;;5028253;28;20041;-78
2022/04/26 08:19:33;;;;;;;4.93;2.38;;;11.30;99.90;;;;;;5029726;28;20131;-79
2022/04/26 08:21:59;;;;;;;4.15;2.45;;;10.90;99.90;;;;;;5026445;28;20045;-79
2022/04/26 08:27:30;;;;;;;4.95;2.20;;;11.90;99.90;;;;;;5017348;28;20046;-79
2022/04/26 08:29:57;;;;;;;4.70;2.60;;;12.50;99.90;;;;;;5033377;28;20045;-79
2022/04/26 08:32:24;;;;;;;4.78;2.35;;;12.50;99.20;;;;;;5014070;28;20045;-77
2022/04/26 08:34:51;;;;;;;4.82;2.30;;;12.30;98.90;;;;;;5033402;28;20033;-77
2022/04/26 08:37:17;;;;;;;6.05;2.75;;;12.90;99.40;;;;;;5017094;28;20091;-78
2022/04/26 08:39:42;;;;;;;5.20;2.83;;;13.30;98.70;;;;;;5031747;28;20477;-78
2022/04/26 08:42:08;;;;;;;4.95;2.75;;;13.40;97.60;;;;;;5034901;28;20379;-78
2022/04/26 08:44:34;;;;;;;8.38;3.58;;;13.50;97.90;;;;;;5046955;28;20128;-77
2022/04/26 08:52:48;;;;;;;5.30;2.47;;;13.10;98.50;;;;;;5043545;28;20045;-77
2022/04/26 08:55:14;;;;;;;6.50;2.60;;;12.70;98.70;;;;;;5024540;28;20451;-78
2022/04/26 08:57:40;;;;;;;6.18;2.63;;;12.90;98.40;;;;;;5034946;28;20072;-78
2022/04/26 09:00:07;;;;;;;6.10;2.70;;;13.00;98.80;;;;;;5016823;28;20049;-77
2022/04/26 09:02:33;;;;;;;8.43;3.38;;;12.90;98.20;;;;;;5032848;28;20045;-77
2022/04/26 09:05:13;;;;;;;5.65;2.90;;;12.90;98.30;;;;;;5034957;28;20087;-77
2022/04/26 09:07:40;;;;;;;7.40;2.90;;;12.80;97.50;;;;;;5034664;28;20041;-77
2022/04/26 09:10:17;;;;;;;6.88;2.65;;;12.60;98.20;;;;;;5033200;28;20117;-77
2022/04/26 09:13:05;;;;;;;6.47;2.70;;;12.40;99.20;;;;;;5033585;28;20517;-77
2022/04/26 09:15:41;;;;;;;7.25;2.80;;;12.20;98.90;;;;;;5032416;28;20049;-77
2022/04/26 09:18:27;;;;;;;6.50;2.92;;;11.80;99.90;;;;;;5021653;28;20052;-77
2022/04/26 09:21:05;;;;;;;6.78;2.60;;;11.90;99.90;;;;;;5013049;28;20045;-77
2022/04/26 09:23:32;;;;;;;5.63;2.78;;;12.30;99.50;;;;;;5025867;28;20076;-77
2022/04/26 09:26:12;;;;;;;5.00;2.50;;;12.30;99.00;;;;;;5036048;28;20048;-77
2022/04/26 09:28:58;;;;;;;5.32;2.35;;;12.30;98.90;;;;;;5027416;28;20068;-78
2022/04/26 09:31:30;;;;;;;4.15;2.60;;;12.40;99.60;;;;;;5033399;28;20045;-77
2022/04/26 09:33:57;;;;;;;6.85;2.83;;;12.60;98.80;;;;;;5034169;28;20050;-77
2022/04/26 09:36:24;;;;;;;5.57;2.63;;;12.30;97.90;;;;;;5027391;28;20386;-77
2022/04/26 09:38:52;;;;;;;5.90;2.47;;;12.80;98.40;;;;;;5033745;28;20037;-77
2022/04/26 09:41:18;;;;;;;4.15;2.50;;;13.20;98.10;;;;;;5033682;28;20056;-77
2022/04/26 09:43:54;;;;;;;6.75;2.83;;;13.00;96.70;;;;;;5033994;28;20656;-77
2022/04/26 09:46:19;;;;;;;7.50;3.10;;;13.00;97.70;;;;;;5035490;28;20080;-77
2022/04/26 09:48:45;;;;;;;5.70;2.58;;;13.00;97.90;;;;;;5044368;28;20064;-77
2022/04/26 09:51:11;;;;;;;6.72;3.10;;;12.90;96.60;;;;;;5033642;28;20120;-77
2022/04/26 09:53:37;;;;;;;4.35;2.75;;;13.00;96.70;;;;;;5030228;28;20136;-77
2022/04/26 09:56:04;;;;;;;5.07;3.00;;;13.30;96.60;;;;;;5034248;28;20042;-77
2022/04/26 09:58:30;;;;;;;13.52;3.42;;;13.20;95.10;;;;;;5044984;28;20037;-77
2022/04/26 10:01:00;;;;;;;6.80;3.00;;;13.10;96.70;;;;;;5032199;28;20057;-77
2022/04/26 10:03:31;;;;;;;5.38;2.60;;;13.30;95.00;;;;;;5025374;28;20110;-77
2022/04/26 10:06:02;;;;;;;34.03;4.32;;;13.30;95.40;;;;;;5033641;28;20036;-77
2022/04/26 10:08:30;;;;;;;14.77;3.15;;;13.30;94.80;;;;;;5023905;28;20385;-77
2022/04/26 10:10:57;;;;;;;4.43;2.55;;;13.60;94.60;;;;;;5030331;28;20337;-77
2022/04/26 10:13:32;;;;;;;5.18;2.53;;;13.70;95.70;;;;;;5031782;28;20612;-77
2022/04/26 10:16:07;;;;;;;3.97;2.40;;;13.80;94.20;;;;;;5028538;28;20042;-77
2022/04/26 10:18:44;;;;;;;4.80;2.70;;;13.70;92.90;;;;;;5026173;28;20045;-77
2022/04/26 10:21:12;;;;;;;5.57;2.30;;;13.50;93.10;;;;;;5015005;28;20042;-77
2022/04/26 10:23:56;;;;;;;7.53;2.90;;;13.70;94.00;;;;;;5046390;28;20049;-77
2022/04/26 10:26:24;;;;;;;6.60;2.63;;;13.80;92.70;;;;;;5026941;28;20099;-78
2022/04/26 10:29:00;;;;;;;4.60;2.53;;;13.90;93.20;;;;;;5031406;28;20044;-77
2022/04/26 10:31:50;;;;;;;4.18;2.53;;;13.30;94.00;;;;;;5031401;28;20052;-77
2022/04/26 10:34:20;;;;;;;4.57;2.47;;;13.60;94.20;;;;;;5001103;28;20100;-77
2022/04/26 10:36:47;;;;;;;6.93;3.03;;;13.70;93.90;;;;;;5011304;28;20041;-77
2022/04/26 10:39:12;;;;;;;5.82;2.65;;;13.20;93.60;;;;;;5042854;28;20043;-77
2022/04/26 10:41:40;;;;;;;7.80;2.70;;;13.30;94.70;;;;;;5035955;28;20247;-77
2022/04/26 10:44:33;;;;;;;5.53;2.40;;;13.70;94.20;;;;;;5030915;28;20076;-77
2022/04/26 10:47:02;;;;;;;4.85;2.88;;;13.50;90.20;;;;;;5032452;28;20510;-77
2022/04/26 10:49:49;;;;;;;4.47;2.80;;;13.90;92.70;;;;;;5014768;28;20356;-77
2022/04/26 10:52:17;;;;;;;6.63;2.58;;;13.90;90.20;;;;;;5032805;28;20128;-77
2022/04/26 10:54:48;;;;;;;7.97;2.67;;;13.80;91.50;;;;;;5036120;28;20079;-77
2022/04/26 10:57:19;;;;;;;5.60;2.70;;;13.70;92.90;;;;;;5028977;28;20033;-77
2022/04/26 10:59:56;;;;;;;3.65;2.65;;;13.90;92.80;;;;;;5032687;28;20038;-77
2022/04/26 11:02:25;;;;;;;5.32;2.47;;;14.10;92.20;;;;;;5032096;28;20050;-77
2022/04/26 11:04:57;;;;;;;4.50;2.45;;;14.10;90.40;;;;;;5032394;28;20534;-77
2022/04/26 11:07:26;;;;;;;3.55;2.50;;;14.10;86.80;;;;;;5014620;28;20041;-77
2022/04/26 11:09:54;;;;;;;4.10;2.40;;;14.00;86.80;;;;;;5019190;28;20371;-77
2022/04/26 11:12:21;;;;;;;5.20;2.70;;;14.20;83.90;;;;;;5014404;28;20048;-77
2022/04/26 11:14:48;;;;;;;4.43;2.40;;;13.90;85.70;;;;;;5032004;28;20075;-77
2022/04/26 11:17:16;;;;;;;3.80;2.55;;;14.10;88.30;;;;;;5011174;28;20525;-77
2022/04/26 11:20:03;;;;;;;3.45;2.00;;;14.10;90.30;;;;;;5029644;28;20076;-77
2022/04/26 11:22:29;;;;;;;5.25;2.50;;;13.80;87.10;;;;;;5031018;28;20050;-77
2022/04/26 11:28:00;;;;;;;3.72;2.40;;;14.00;87.40;;;;;;5030027;28;20049;-77
2022/04/26 11:30:31;;;;;;;5.57;2.70;;;13.90;86.70;;;;;;5013495;28;20041;-77
2022/04/26 11:32:58;;;;;;;7.75;2.83;;;13.50;84.50;;;;;;5021575;28;20046;-77
2022/04/26 11:35:24;;;;;;;6.85;2.67;;;13.60;90.40;;;;;;5034774;28;20056;-77
2022/04/26 11:37:55;;;;;;;2.95;2.20;;;13.40;90.50;;;;;;5031643;28;20559;-77
2022/04/26 11:40:29;;;;;;;3.13;1.98;;;13.40;88.90;;;;;;5030385;28;20073;-77
2022/04/26 11:42:57;;;;;;;6.00;2.80;;;14.00;87.60;;;;;;5031913;28;20123;-77
2022/04/26 11:45:28;;;;;;;5.20;2.30;;;13.70;82.30;;;;;;5031904;28;20039;-77
2022/04/26 11:47:54;;;;;;;3.55;2.28;;;13.80;83.70;;;;;;5027301;28;20045;-77
2022/04/26 11:50:27;;;;;;;3.40;2.10;;;14.20;81.00;;;;;;5030100;28;20084;-77
2022/04/26 11:53:00;;;;;;;4.55;2.65;;;14.40;86.50;;;;;;5030140;28;20510;-77
2022/04/26 11:55:34;;;;;;;5.22;2.80;;;13.80;81.50;;;;;;5030379;28;20041;-77
2022/04/26 11:58:16;;;;;;;3.03;2.25;;;13.90;82.90;;;;;;5026928;28;20125;-77
2022/04/26 12:00:52;;;;;;;3.65;2.60;;;13.90;79.30;;;;;;5031288;28;20510;-77
2022/04/26 12:03:19;;;;;;;4.85;2.63;;;13.50;83.20;;;;;;5033115;28;20545;-77
2022/04/26 12:05:49;;;;;;;3.15;2.58;;;13.90;84.30;;;;;;5023975;28;20384;-74
2022/04/26 12:08:15;;;;;;;3.67;2.60;;;14.20;84.50;;;;;;5029717;28;20056;-74
2022/04/26 12:10:41;;;;;;;3.28;2.20;;;13.80;83.40;;;;;;5028672;28;20049;-75
2022/04/26 12:13:07;;;;;;;6.40;3.00;;;13.60;81.80;;;;;;5011885;28;20052;-74
2022/04/26 12:15:35;;;;;;;4.00;2.42;;;13.60;84.80;;;;;;5026398;28;20034;-74
2022/04/26 12:18:07;;;;;;;4.25;2.70;;;13.70;84.90;;;;;;5025201;28;20048;-73
2022/04/26 12:20:36;;;;;;;7.65;2.95;;;14.20;84.20;;;;;;5025321;28;20040;-73
2022/04/26 12:23:03;;;;;;;6.38;2.53;;;14.60;85.50;;;;;;5003121;28;20108;-73
2022/04/26 12:25:29;;;;;;;3.92;2.30;;;14.90;84.30;;;;;;5025103;28;20052;-73
2022/04/26 12:28:06;;;;;;;4.43;2.70;;;14.90;80.20;;;;;;5025714;28;20042;-74
2022/04/26 12:30:33;;;;;;;2.67;2.30;;;14.70;81.10;;;;;;5025936;28;20038;-74
2022/04/26 12:32:59;;;;;;;5.20;2.42;;;14.70;81.10;;;;;;5025313;28;20073;-74
2022/04/26 12:35:25;;;;;;;3.63;2.22;;;14.60;83.40;;;;;;5028581;28;20096;-73
2022/04/26 12:38:05;;;;;;;3.58;1.98;;;;;;;;;;5026554;28;20056;-73
2022/04/26 12:40:31;;;;;;;4.97;2.40;;;15.30;83.80;;;;;;5021105;28;20056;-74
2022/04/26 12:42:57;;;;;;;4.40;2.30;;;15.30;79.60;;;;;;5026009;28;20041;-74
2022/04/26 12:45:23;;;;;;;4.50;2.22;;;14.80;71.50;;;;;;5024944;28;20709;-74
2022/04/26 12:51:27;;;;;;;5.10;2.72;;;14.90;79.80;;;;;;5026989;28;20049;-73
2022/04/26 12:54:05;;;;;;;3.97;2.35;;;15.40;78.20;;;;;;5014384;28;20061;-74
2022/04/26 12:56:30;;;;;;;4.68;2.40;;;15.50;79.60;;;;;;5026960;28;20076;-73
2022/04/26 12:58:56;;;;;;;5.35;2.13;;;15.40;72.60;;;;;;5028367;28;20475;-74
2022/04/26 13:01:22;;;;;;;5.15;2.53;;;15.40;75.50;;;;;;5029227;28;20092;-73
2022/04/26 13:03:47;;;;;;;5.15;2.72;;;14.80;74.90;;;;;;5026739;28;20053;-73
2022/04/26 13:06:18;;;;;;;4.65;2.47;;;15.00;79.40;;;;;;5020565;28;20105;-75
2022/04/26 13:08:48;;;;;;;6.03;2.22;;;15.00;74.10;;;;;;5031174;28;20048;-73
2022/04/26 13:11:18;;;;;;;4.85;2.50;;;15.00;75.00;;;;;;5031935;28;20120;-73
2022/04/26 13:13:49;;;;;;;5.35;2.65;;;14.80;75.90;;;;;;5032004;28;20087;-73
2022/04/26 13:16:16;;;;;;;5.90;2.40;;;14.90;80.90;;;;;;5024420;28;20535;-73
2022/04/26 13:18:42;;;;;;;3.72;2.13;;;14.80;78.70;;;;;;5033927;28;20111;-74
2022/04/26 13:21:08;;;;;;;4.63;2.47;;;14.80;80.00;;;;;;5030984;28;20041;-74
2022/04/26 13:23:34;;;;;;;3.75;2.30;;;14.80;77.90;;;;;;5032560;28;20050;-73
2022/04/26 13:26:01;;;;;;;3.65;2.20;;;14.80;77.00;;;;;;5034750;28;20042;-73
2022/04/26 13:28:27;;;;;;;7.10;2.35;;;14.70;75.00;;;;;;5033874;28;20076;-73
2022/04/26 13:30:53;;;;;;;3.55;2.03;;;14.70;74.80;;;;;;5032599;28;20041;-73
2022/04/26 13:33:19;;;;;;;3.03;1.95;;;14.90;79.10;;;;;;5015851;28;20053;-73
2022/04/26 13:35:45;;;;;;;3.70;2.20;;;15.30;79.60;;;;;;5030464;28;20045;-73
2022/04/26 13:38:12;;;;;;;3.70;2.03;;;15.10;69.50;;;;;;5035938;28;20053;-73
2022/04/26 13:40:39;;;;;;;3.35;1.67;;;15.20;74.50;;;;;;5030655;28;20061;-73
2022/04/26 13:43:07;;;;;;;4.38;2.10;;;15.70;77.40;;;;;;5030636;28;20454;-73
2022/04/26 13:45:33;;;;;;;3.72;2.28;;;15.30;69.50;;;;;;5032027;28;20041;-73
2022/04/26 13:48:08;;;;;;;3.55;2.40;;;15.50;73.00;;;;;;5032415;28;20102;-73
2022/04/26 13:50:35;;;;;;;3.88;2.15;;;15.80;74.20;;;;;;5022721;28;20144;-73
2022/04/26 13:53:00;;;;;;;3.97;2.30;;;15.60;74.60;;;;;;5017991;28;20049;-73
2022/04/26 13:55:26;;;;;;;4.65;2.05;;;15.10;66.90;;;;;;5019233;28;20041;-73
2022/04/26 13:57:54;;;;;;;2.13;1.85;;;14.70;67.80;;;;;;5029908;28;20038;-73
2022/04/26 14:00:20;;;;;;;2.10;1.90;;;15.10;72.30;;;;;;5013657;28;20037;-73
2022/04/26 14:02:46;;;;;;;2.55;2.25;;;15.30;66.20;;;;;;5024412;28;20047;-73
2022/04/26 14:05:13;;;;;;;4.40;2.58;;;15.70;66.50;;;;;;5029868;28;20045;-73
2022/04/26 14:07:39;;;;;;;3.55;2.10;;;15.90;72.40;;;;;;5023801;28;20092;-73
2022/04/26 14:10:06;;;;;;;3.72;2.20;;;15.90;70.70;;;;;;5028996;28;20493;-73
2022/04/26 14:12:33;;;;;;;3.42;2.42;;;15.70;65.60;;;;;;5026643;28;20048;-73
2022/04/26 14:23:11;;;;;;;2.72;2.28;;;15.30;70.50;;;;;;5028252;28;20081;-73
2022/04/26 14:25:38;;;;;;;3.17;2.28;;;15.20;71.60;;;;;;5026177;28;20068;-73
2022/04/26 14:28:05;;;;;;;3.78;2.42;;;15.20;71.10;;;;;;5005091;28;20356;-73
2022/04/26 14:30:30;;;;;;;6.88;2.65;;;15.00;70.30;;;;;;5030157;28;20647;-73
2022/04/26 14:32:56;;;;;;;3.58;2.10;;;14.80;73.10;;;;;;5027586;28;20048;-73
2022/04/26 14:35:22;;;;;;;3.33;2.03;;;14.90;77.40;;;;;;5031142;28;20049;-73
2022/04/26 14:37:49;;;;;;;3.20;2.20;;;14.50;72.70;;;;;;5021680;28;20041;-73
2022/04/26 14:40:14;;;;;;;4.60;2.70;;;14.30;75.80;;;;;;5027508;28;20451;-73
2022/04/26 14:42:45;;;;;;;7.40;2.50;;;14.30;76.50;;;;;;5025774;28;20045;-73
2022/04/26 14:45:10;;;;;;;3.25;2.45;;;14.40;77.10;;;;;;5030495;28;20535;-73
2022/04/26 14:47:36;;;;;;;4.80;2.60;;;14.00;79.50;;;;;;5027196;28;20045;-72
2022/04/26 14:50:04;;;;;;;4.53;2.72;;;14.60;81.40;;;;;;5030354;28;20064;-73
2022/04/26 14:52:30;;;;;;;3.58;2.42;;;14.90;80.40;;;;;;5035508;28;20045;-73
2022/04/26 14:54:57;;;;;;;6.00;2.58;;;15.00;78.20;;;;;;5030817;28;20102;-72
2022/04/26 14:57:23;;;;;;;4.28;2.80;;;14.90;75.40;;;;;;5032324;28;20061;-73
2022/04/26 14:59:49;;;;;;;6.05;2.58;;;15.10;76.40;;;;;;5031649;28;20067;-72
2022/04/26 15:02:18;;;;;;;3.72;2.58;;;15.30;80.10;;;;;;5021475;28;20034;-73
2022/04/26 15:04:46;;;;;;;5.78;2.70;;;15.30;73.40;;;;;;5029743;28;20044;-74
2022/04/26 15:07:12;;;;;;;5.30;2.33;;;15.40;73.20;;;;;;5030586;28;20045;-72
2022/04/26 15:09:43;;;;;;;5.80;2.55;;;15.60;76.90;;;;;;5024843;28;20041;-72
2022/04/26 15:17:44;;;;;;;3.70;2.33;;;15.80;72.30;;;;;;5016755;28;20360;-72
2022/04/26 15:20:12;;;;;;;4.03;2.20;;;15.70;69.10;;;;;;5026781;28;20069;-71
2022/04/26 15:22:38;;;;;;;4.68;2.40;;;15.80;77.20;;;;;;5024759;28;20171;-71
2022/04/26 15:25:06;;;;;;;6.03;2.50;;;16.00;71.90;;;;;;5020024;28;20038;-72
2022/04/26 15:27:37;;;;;;;5.35;2.70;;;15.90;72.40;;;;;;5010954;28;20076;-71
2022/04/26 15:30:05;;;;;;;4.13;2.80;;;15.90;72.00;;;;;;5028633;28;20037;-71
2022/04/26 15:32:31;;;;;;;3.78;2.13;;;16.00;72.80;;;;;;5024819;28;20491;-72
2022/04/26 15:34:56;;;;;;;4.45;2.30;;;15.80;68.40;;;;;;5027504;28;20045;-71
2022/04/26 15:37:24;;;;;;;6.97;2.50;;;15.70;74.60;;;;;;5034151;23;20123;-76
2022/04/26 15:39:51;;;;;;;4.43;2.47;;;15.60;72.60;;;;;;5014635;28;20055;-76
2022/04/26 15:42:18;;;;;;;7.63;2.40;;;15.30;72.70;;;;;;5018936;28;20049;-77
2022/04/26 15:44:44;;;;;;;3.97;2.38;;;15.30;73.20;;;;;;5020505;28;20049;-78
2022/04/26 15:47:09;;;;;;;5.07;2.40;;;14.60;71.50;;;;;;5006038;28;20029;-76
2022/04/26 15:49:35;;;;;;;3.03;2.03;;;14.90;83.50;;;;;;4996057;28;20436;-76
2022/04/26 15:52:00;;;;;;;5.88;2.47;;;15.00;87.00;;;;;;5012263;28;20555;-76
2022/04/26 15:54:26;;;;;;;2.70;2.25;;;14.90;76.90;;;;;;5011939;28;20041;-76
2022/04/26 15:56:52;;;;;;;4.55;2.45;;;14.90;81.90;;;;;;5012213;28;20619;-77
2022/04/26 15:59:17;;;;;;;3.20;2.20;;;14.50;72.30;;;;;;5009931;28;20086;-77
2022/04/26 16:01:43;;;;;;;4.55;2.45;;;14.50;75.90;;;;;;4996036;28;20056;-77
2022/04/26 16:04:09;;;;;;;5.28;2.30;;;14.50;83.70;;;;;;5013600;28;20483;-76
2022/04/26 16:06:40;;;;;;;4.50;2.08;;;14.40;82.90;;;;;;5013990;28;20041;-77
2022/04/26 16:22:48;;;;;;;4.72;2.30;;;13.50;84.60;;;;;;5014007;28;20049;-77
2022/04/26 16:25:14;;;;;;;4.47;2.50;;;13.60;87.10;;;;;;5013206;28;20352;-77
2022/04/26 16:27:40;;;;;;;5.15;2.55;;;13.20;81.10;;;;;;5013685;28;20037;-77
2022/04/26 16:30:07;;;;;;;5.07;2.33;;;13.30;83.40;;;;;;5005899;28;20437;-77
2022/04/26 16:32:33;;;;;;;4.78;2.10;;;13.10;83.00;;;;;;5008729;28;20033;-77
2022/04/26 16:35:00;;;;;;;3.20;2.20;;;13.20;87.90;;;;;;5018787;28;20503;-77
2022/04/26 16:37:25;;;;;;;5.57;2.53;;;13.30;86.50;;;;;;5020110;28;20045;-76
2022/04/26 16:39:51;;;;;;;4.18;2.38;;;13.40;82.30;;;;;;5012990;28;20060;-76
2022/04/26 16:42:17;;;;;;;5.13;2.55;;;13.40;90.10;;;;;;5021229;28;20051;-77
2022/04/26 16:44:42;;;;;;;5.65;2.53;;;13.30;81.70;;;;;;5025736;28;20049;-77
2022/04/26 16:47:10;;;;;;;7.90;3.35;;;12.90;84.00;;;;;;5023395;28;20065;-77
2022/04/26 16:49:36;;;;;;;5.95;2.83;;;12.90;84.00;;;;;;5016191;28;20698;-76
2022/04/26 16:52:01;;;;;;;4.85;2.28;;;12.90;87.70;;;;;;5013076;28;20045;-77
2022/04/26 16:54:27;;;;;;;5.32;2.72;;;12.90;86.00;;;;;;5021560;28;20033;-77
2022/04/26 16:56:52;;;;;;;4.50;2.47;;;13.00;89.60;;;;;;5016680;28;20045;-76
2022/04/26 16:59:20;;;;;;;5.28;2.50;;;12.70;83.40;;;;;;5016119;28;20758;-76
2022/04/26 17:01:46;;;;;;;3.97;2.42;;;12.70;87.30;;;;;;5012018;28;20490;-76
2022/04/26 17:04:12;;;;;;;3.78;2.47;;;12.90;88.10;;;;;;5013349;28;20048;-76
2022/04/26 17:06:39;;;;;;;5.38;2.40;;;13.00;91.00;;;;;;5011840;28;20041;-76
2022/04/26 17:09:05;;;;;;;26.92;4.40;;;12.90;88.20;;;;;;5008016;28;20034;-75
2022/04/26 17:11:43;;;;;;;5.38;2.55;;;12.70;87.90;;;;;;5030141;28;20116;-76